Flight Track Log - Related Links

Times and Time Zones

All times are in EDT time to prevent confusion due to time zone crossing. See the KAP165 flight status page for this flight to view local times or setup timezone preferences in your user account.

Time Position Orientation Groundspeed Altitude Reporting Facility
EDT Latitude Longitude Course Direction KTS MPH feet Rate Location/Type
Tue 07:27:00 PM 42.9752 -73.9901 329° Northwest  Level Estimated
Tue 07:28:00 PM 43.0075 -74.0171 329° Northwest  Level Estimated
Tue 07:29:00 PM 43.0397 -74.0441 329° Northwest  Level Estimated
Tue 07:30:00 PM 43.0720 -74.0711 329° Northwest  Level Estimated
Tue 07:30:06 PM 43.0644 -73.8836 328° Northwest 115 132 5,300  Level Boston Center
Tue 07:31:00 PM 43.1043 -74.0982 329° Northwest  Level Estimated
Tue 07:31:06 PM 43.0978 -73.8931 348° North 115 132 5,700  Level Boston Center
Tue 07:32:00 PM 43.1365 -74.1253 328° Northwest  Level Estimated
Tue 07:32:07 PM 43.1289 -73.9025 348° North 115 132 6,200  Level Boston Center
Tue 07:33:00 PM 43.1687 -74.1524 328° Northwest  Level Estimated
Tue 07:33:08 PM 43.1642 -73.9089 352° North 123 142 6,500  Level Boston Center
Tue 07:34:00 PM 43.2010 -74.1796 328° Northwest  Level Estimated
Tue 07:34:21 PM 43.2039 -73.9069 North 140 161 7,100  Level Boston Center
Tue 07:35:00 PM 43.2332 -74.2068 328° Northwest  Level Estimated
Tue 07:35:21 PM 43.2414 -73.9078 359° North 135 155 7,100  Level Boston Center
Tue 07:36:21 PM 43.2808 -73.9175 350° North 140 161 7,000 50 Descending Boston Center
Tue 07:37:21 PM 43.3181 -73.9297 347° North 140 161 7,200 400 Climbing Boston Center
Tue 07:38:21 PM 43.3533 -73.9392 349° North 127 146 7,800 450 Climbing Boston Center
Tue 07:39:21 PM 43.3822 -73.9597 333° Northwest 119 137 8,100 450 Climbing Boston Center
Tue 07:40:21 PM 43.4111 -73.9778 336° Northwest 119 137 8,700 500 Climbing Boston Center
Tue 07:41:21 PM 43.4381 -74.0069 322° Northwest 113 130 9,100 136 Climbing Boston Center
Tue 07:42:33 PM 43.4603 -74.0475 307° West 113 130 9,000 -45 Descending Boston Center
Tue 07:43:33 PM 43.4908 -74.0914 314° West 131 151 9,000  Level Boston Center
Tue 07:44:33 PM 43.5069 -74.1347 297° West 136 157 9,000  Level Boston Center
Tue 07:45:33 PM 43.5336 -74.1728 314° West 136 157 9,000  Level Boston Center
Tue 07:46:33 PM 43.5686 -74.1994 331° Northwest 136 157 9,000  Level Boston Center
Tue 07:47:33 PM 43.5992 -74.2347 320° Northwest 136 157 9,000  Level Boston Center
Tue 07:48:33 PM 43.6300 -74.2672 323° Northwest 136 157 9,000  Level Boston Center
Tue 07:49:33 PM 43.6628 -74.3028 322° Northwest 136 157 9,000 50 Level Boston Center
Tue 07:50:33 PM 43.6956 -74.3411 320° Northwest 141 162 9,100  Climbing Boston Center
Tue 07:51:33 PM 43.7281 -74.3794 320° Northwest 146 168 9,000 -50 Descending Boston Center
Tue 07:52:33 PM 43.7631 -74.4150 324° Northwest 151 174 9,000  Level Boston Center
Tue 07:53:33 PM 43.7958 -74.4506 322° Northwest 151 174 9,000  Level Boston Center
Tue 07:54:33 PM 43.8264 -74.4892 318° Northwest 151 174 9,000  Level Boston Center
Tue 07:55:33 PM 43.8611 -74.5247 324° Northwest 151 174 9,000  Level Boston Center
Tue 07:56:33 PM 43.8856 -74.5517 322° Northwest 151 174 9,000  Level Boston Center
Tue 07:57:33 PM 43.9244 -74.5992 319° Northwest 156 180 9,000  Level Boston Center
Tue 07:58:33 PM 43.9569 -74.6319 324° Northwest 156 180 9,000  Level Boston Center
Tue 07:59:33 PM 43.9939 -74.6708 323° Northwest 156 180 9,000  Level Boston Center
Tue 08:00:33 PM 44.0244 -74.7067 320° Northwest 156 180 9,000  Level Boston Center
Tue 08:01:33 PM 44.0569 -74.7425 322° Northwest 156 180 9,000  Level Boston Center
Tue 08:02:33 PM 44.0917 -74.7758 325° Northwest 156 180 9,000  Level Boston Center
Tue 08:03:33 PM 44.1267 -74.8061 328° Northwest 151 174 9,000  Level Boston Center
Tue 08:04:33 PM 44.1633 -74.8394 327° Northwest 151 174 9,000  Level Boston Center
Tue 08:05:33 PM 44.1961 -74.8697 326° Northwest 146 168 9,000  Level Boston Center
Tue 08:06:33 PM 44.2308 -74.9000 328° Northwest 151 174 9,000  Level Boston Center
Tue 08:07:33 PM 44.2656 -74.9361 323° Northwest 151 174 9,000 -450 Level Boston Center
Tue 08:08:33 PM 44.3042 -74.9756 324° Northwest 151 174 8,100 -650 Descending Boston Center
Tue 08:09:33 PM 44.3453 -75.0092 330° Northwest 161 185 7,700 -500 Descending Boston Center
Tue 08:10:33 PM 44.3797 -75.0456 323° Northwest 161 185 7,100 -700 Descending Boston Center
Tue 08:11:33 PM 44.4206 -75.0853 325° Northwest 166 191 6,300 -750 Descending Boston Center
Tue 08:12:33 PM 44.4614 -75.1189 330° Northwest 166 191 5,600 -600 Descending Boston Center
Tue 08:13:33 PM 44.4978 -75.1644 318° Northwest 171 197 5,100 -350 Descending Boston Center
Tue 08:14:33 PM 44.5306 -75.1919 329° Northwest 171 197 4,900 -650 Descending Boston Center
Tue 08:15:33 PM 44.5753 -75.2350 326° Northwest 166 191 3,800 -1,100 Descending Boston Center

Login

Don't have an account? Register now (free) for customized features, flight alerts, and more!